Merrill Field Airport (MRI)

 

Airport Diagram
Current Weather/Forecast (VFR Conditions)
METAR PAMR 312153Z 15007G20KT 120V190 10SM CLR 10/M03 A2871 RMK AO2 SLP724 T01001028
TAF

All Charts

Inbound Traffic (Arrivals)

No inbound traffic.


Outbound Traffic (Departures)

No outbound traffic.